Time;durP1;ratioP1;P1;durP2;ratioP2;P2;SDS_P1;SDS_P2;PMS_P1;PMS_P2;Temp;Humidity;BMP_temperature;BMP_pressure;BME280_temperature;BME280_humidity;BME280_pressure;Samples;Min_cycle;Max_cycle;Signal;HPM_P1;HPM_P2
2023/04/20 00:00:47;;;;;;;1.23;1.13;;;19.30;44.60;;;;;;5017834;28;20660;-70
2023/04/20 00:03:13;;;;;;;1.50;1.40;;;19.20;44.50;;;;;;5017950;28;20621;-69
2023/04/20 00:05:38;;;;;;;1.77;1.67;;;19.30;44.60;;;;;;5016069;28;20210;-67
2023/04/20 00:08:04;;;;;;;1.57;1.47;;;19.30;44.60;;;;;;5017068;28;20517;-70
2023/04/20 00:10:29;;;;;;;1.50;1.40;;;19.30;44.60;;;;;;5018859;28;20215;-68
2023/04/20 00:12:55;;;;;;;2.23;1.73;;;19.20;44.50;;;;;;5015602;28;20219;-67
2023/04/20 00:15:20;;;;;;;1.57;1.30;;;19.20;44.50;;;;;;5013374;28;20700;-68
2023/04/20 00:17:47;;;;;;;1.53;1.43;;;19.30;44.50;;;;;;5015826;28;20218;-68
2023/04/20 00:20:14;;;;;;;1.50;1.40;;;19.30;44.60;;;;;;5019268;28;20237;-68
2023/04/20 00:22:39;;;;;;;1.40;1.30;;;19.30;44.60;;;;;;5018989;28;20550;-67
2023/04/20 00:25:05;;;;;;;1.50;1.40;;;19.20;44.50;;;;;;5020209;28;20466;-68
2023/04/20 00:27:31;;;;;;;1.50;1.40;;;19.20;44.50;;;;;;5020266;28;21121;-67
2023/04/20 00:29:57;;;;;;;1.57;1.30;;;19.20;44.50;;;;;;5019805;28;20424;-67
2023/04/20 00:32:22;;;;;;;1.30;1.20;;;19.30;44.60;;;;;;5015918;28;20268;-69
2023/04/20 00:34:48;;;;;;;1.50;1.40;;;19.20;44.50;;;;;;5010975;28;20586;-67
2023/04/20 00:37:13;;;;;;;1.50;1.40;;;19.30;44.60;;;;;;5021009;28;20258;-69
2023/04/20 00:39:40;;;;;;;1.27;1.17;;;19.30;44.60;;;;;;5016884;28;20307;-67
2023/04/20 00:42:06;;;;;;;1.67;1.57;;;19.30;44.60;;;;;;5019348;28;20223;-67
2023/04/20 00:44:32;;;;;;;1.60;1.50;;;19.30;44.70;;;;;;5016920;28;20859;-67
2023/04/20 00:46:58;;;;;;;1.40;1.30;;;19.30;44.70;;;;;;5019080;28;20564;-68
2023/04/20 00:49:28;;;;;;;2.20;1.43;;;19.30;44.60;;;;;;5019701;28;20223;-68
2023/04/20 00:51:57;;;;;;;1.67;1.57;;;19.30;44.70;;;;;;5021254;28;20544;-67
2023/04/20 00:54:23;;;;;;;1.30;1.20;;;19.20;45.30;;;;;;5015666;28;20491;-67
2023/04/20 00:56:49;;;;;;;1.33;1.23;;;19.30;44.60;;;;;;5016368;28;20856;-67
2023/04/20 00:59:15;;;;;;;1.27;1.17;;;19.30;44.60;;;;;;5019413;28;20330;-67
2023/04/20 01:01:41;;;;;;;1.37;1.27;;;19.30;44.70;;;;;;5020087;28;20562;-67
2023/04/20 01:04:08;;;;;;;1.50;1.40;;;19.20;44.60;;;;;;5019469;28;20448;-69
2023/04/20 01:06:33;;;;;;;1.60;1.50;;;19.20;44.60;;;;;;5019377;28;20226;-67
2023/04/20 01:08:59;;;;;;;1.33;1.23;;;19.20;45.30;;;;;;5007250;28;21636;-68
2023/04/20 01:11:25;;;;;;;1.53;1.43;;;19.20;44.60;;;;;;5017008;28;20827;-67
2023/04/20 01:13:50;;;;;;;1.40;1.30;;;19.20;44.60;;;;;;5018278;28;20215;-69
2023/04/20 01:16:16;;;;;;;1.50;1.40;;;19.20;44.60;;;;;;5018064;28;20226;-67
2023/04/20 01:18:47;;;;;;;1.37;1.27;;;19.20;44.60;;;;;;5022383;28;20706;-67
2023/04/20 01:21:15;;;;;;;1.60;1.50;;;19.30;44.70;;;;;;5018603;28;20227;-67
2023/04/20 01:23:41;;;;;;;1.40;1.30;;;19.20;44.60;;;;;;5016445;28;21141;-67
2023/04/20 01:26:11;;;;;;;1.53;1.43;;;19.20;44.60;;;;;;5020864;28;20452;-67
2023/04/20 01:28:37;;;;;;;1.30;1.20;;;19.20;44.60;;;;;;5019166;28;20249;-67
2023/04/20 01:31:04;;;;;;;1.30;1.20;;;19.20;44.60;;;;;;5017796;28;21214;-69
2023/04/20 01:33:29;;;;;;;1.67;1.57;;;19.20;44.60;;;;;;5019527;28;20222;-67
2023/04/20 01:35:55;;;;;;;1.60;1.50;;;19.20;44.50;;;;;;5018048;28;20472;-68
2023/04/20 01:38:22;;;;;;;1.43;1.33;;;19.20;44.50;;;;;;5014933;28;20296;-68
2023/04/20 01:40:48;;;;;;;1.40;1.30;;;19.20;44.60;;;;;;5015258;28;20234;-67
2023/04/20 01:43:14;;;;;;;1.40;1.30;;;19.20;44.60;;;;;;5015728;28;20448;-70
2023/04/20 01:45:40;;;;;;;1.33;1.23;;;19.20;44.60;;;;;;5019982;28;20228;-68
2023/04/20 01:48:05;;;;;;;1.30;1.20;;;19.20;44.60;;;;;;5015034;28;20831;-68
2023/04/20 01:50:31;;;;;;;1.30;1.20;;;19.20;44.60;;;;;;5021210;28;20214;-67
2023/04/20 01:52:56;;;;;;;1.30;1.20;;;19.20;44.60;;;;;;5016578;28;20250;-68
2023/04/20 01:55:22;;;;;;;1.30;1.20;;;19.20;44.60;;;;;;5016576;28;20234;-70
2023/04/20 01:57:47;;;;;;;1.40;1.30;;;19.20;44.60;;;;;;5019669;28;20856;-67
2023/04/20 02:00:13;;;;;;;1.20;1.10;;;19.20;44.50;;;;;;5017647;28;20225;-67
2023/04/20 02:02:39;;;;;;;1.30;1.20;;;19.20;44.60;;;;;;5015836;28;20250;-67
2023/04/20 02:05:05;;;;;;;1.40;1.30;;;19.20;44.60;;;;;;5017510;28;20345;-67
2023/04/20 02:07:30;;;;;;;1.40;1.30;;;19.20;44.60;;;;;;5020311;28;20211;-68
2023/04/20 02:09:56;;;;;;;1.30;1.20;;;19.20;44.60;;;;;;5015441;28;20927;-67
2023/04/20 02:12:21;;;;;;;1.40;1.30;;;19.20;44.60;;;;;;5017948;28;20707;-67
2023/04/20 02:14:47;;;;;;;1.57;1.47;;;19.20;44.70;;;;;;5016210;28;20245;-68
2023/04/20 02:17:13;;;;;;;1.30;1.20;;;19.20;44.70;;;;;;5019225;28;20233;-68
2023/04/20 02:19:39;;;;;;;1.30;1.20;;;19.20;44.60;;;;;;5015156;28;20226;-67
2023/04/20 02:22:04;;;;;;;1.60;1.50;;;19.20;44.70;;;;;;5011622;28;20223;-67
2023/04/20 02:24:30;;;;;;;1.47;1.37;;;19.20;44.60;;;;;;5009206;28;20442;-67
2023/04/20 02:26:55;;;;;;;1.30;1.20;;;19.20;44.60;;;;;;5011412;28;20313;-69
2023/04/20 02:29:21;;;;;;;1.30;1.20;;;19.20;44.60;;;;;;5012675;28;20226;-67
2023/04/20 02:31:47;;;;;;;1.30;1.20;;;19.20;44.60;;;;;;5016439;28;20337;-69
2023/04/20 02:34:12;;;;;;;1.30;1.20;;;19.20;44.70;;;;;;5012144;28;20272;-69
2023/04/20 02:36:38;;;;;;;1.30;1.20;;;19.20;44.60;;;;;;5015961;28;20242;-68
2023/04/20 02:39:04;;;;;;;1.30;1.20;;;19.20;44.60;;;;;;5022327;28;20398;-67
2023/04/20 02:41:30;;;;;;;1.40;1.30;;;19.20;44.70;;;;;;5015693;28;20966;-67
2023/04/20 02:43:55;;;;;;;1.40;1.30;;;19.20;44.70;;;;;;5018430;28;20514;-67
2023/04/20 02:46:21;;;;;;;1.30;1.20;;;19.20;44.70;;;;;;5019781;28;20738;-67
2023/04/20 02:48:47;;;;;;;1.50;1.40;;;19.20;44.70;;;;;;5018940;28;20223;-68
2023/04/20 02:51:12;;;;;;;1.40;1.30;;;19.20;44.70;;;;;;5023530;28;20708;-67
2023/04/20 02:53:38;;;;;;;1.40;1.30;;;19.20;44.70;;;;;;5017848;28;20288;-68
2023/04/20 02:56:03;;;;;;;1.50;1.40;;;19.20;44.70;;;;;;5022622;28;20231;-69
2023/04/20 02:58:29;;;;;;;1.30;1.20;;;19.20;44.70;;;;;;5020741;28;20776;-68
2023/04/20 03:00:59;;;;;;;1.30;1.20;;;19.20;44.70;;;;;;5021539;28;20303;-67
2023/04/20 03:03:26;;;;;;;1.40;1.30;;;19.20;44.70;;;;;;5016641;28;20246;-68
2023/04/20 03:05:51;;;;;;;1.40;1.30;;;19.20;44.70;;;;;;5016282;28;20436;-67
2023/04/20 03:08:17;;;;;;;1.20;1.10;;;19.20;44.70;;;;;;5018123;28;21221;-68
2023/04/20 03:10:43;;;;;;;1.60;1.50;;;19.20;44.70;;;;;;5017363;28;20212;-68
2023/04/20 03:13:08;;;;;;;1.30;1.20;;;19.20;44.70;;;;;;5016392;28;20226;-67
2023/04/20 03:15:34;;;;;;;1.77;1.27;;;19.20;44.70;;;;;;5016317;28;21547;-67
2023/04/20 03:18:00;;;;;;;1.40;1.30;;;19.20;44.70;;;;;;5015500;28;20277;-71
2023/04/20 03:20:26;;;;;;;1.20;1.10;;;19.10;44.60;;;;;;5019157;28;20793;-68
2023/04/20 03:22:51;;;;;;;1.63;1.53;;;19.10;44.60;;;;;;5017633;28;20210;-68
2023/04/20 03:25:17;;;;;;;1.43;1.33;;;19.20;44.70;;;;;;5019536;28;20448;-67
2023/04/20 03:27:45;;;;;;;1.27;1.17;;;19.20;44.70;;;;;;5022435;28;20223;-70
2023/04/20 03:30:12;;;;;;;1.30;1.20;;;19.10;44.50;;;;;;5024339;28;20655;-67
2023/04/20 03:32:37;;;;;;;1.47;1.37;;;19.20;44.70;;;;;;5020624;28;21025;-68
2023/04/20 03:35:04;;;;;;;1.60;1.50;;;19.20;44.70;;;;;;5019520;28;20439;-68
2023/04/20 03:37:30;;;;;;;1.47;1.37;;;19.20;44.60;;;;;;5018126;28;20239;-67
2023/04/20 03:39:55;;;;;;;1.37;1.27;;;19.10;44.50;;;;;;5019533;28;20463;-67
2023/04/20 03:42:21;;;;;;;1.53;1.43;;;19.10;44.50;;;;;;5020654;28;20242;-67
2023/04/20 03:44:46;;;;;;;1.30;1.20;;;19.20;44.60;;;;;;5019770;28;20637;-69
2023/04/20 03:47:12;;;;;;;1.30;1.20;;;19.10;44.50;;;;;;5023075;28;20674;-67
2023/04/20 03:49:37;;;;;;;1.40;1.30;;;19.20;44.70;;;;;;5026770;28;20734;-69
2023/04/20 03:52:04;;;;;;;1.20;1.10;;;19.10;44.50;;;;;;5021235;28;20228;-67
2023/04/20 03:54:29;;;;;;;1.50;1.40;;;19.10;44.50;;;;;;5019675;28;20235;-68
2023/04/20 03:56:55;;;;;;;1.20;1.10;;;19.20;44.60;;;;;;5019567;28;20483;-67
2023/04/20 03:59:20;;;;;;;1.30;1.20;;;19.10;44.50;;;;;;5017320;28;21238;-68
2023/04/20 04:01:46;;;;;;;1.20;1.10;;;19.10;44.40;;;;;;5016423;28;20718;-68
2023/04/20 04:04:12;;;;;;;1.13;1.03;;;19.10;44.40;;;;;;5023938;28;20727;-67
2023/04/20 04:06:37;;;;;;;1.30;1.20;;;19.10;44.40;;;;;;5020099;28;20226;-68
2023/04/20 04:09:03;;;;;;;2.70;1.27;;;19.10;44.30;;;;;;5016278;28;20678;-67
2023/04/20 04:11:31;;;;;;;1.40;1.30;;;19.10;44.30;;;;;;5018989;28;20222;-68
2023/04/20 04:13:58;;;;;;;1.20;1.10;;;19.20;44.30;;;;;;5019562;28;20223;-68
2023/04/20 04:16:24;;;;;;;2.03;1.20;;;19.20;44.30;;;;;;5021793;28;20484;-66
2023/04/20 04:18:49;;;;;;;1.43;1.33;;;19.20;44.20;;;;;;5018112;28;20444;-67
2023/04/20 04:21:15;;;;;;;1.53;1.43;;;19.30;44.20;;;;;;5022898;28;20411;-67
2023/04/20 04:23:43;;;;;;;1.33;1.23;;;19.20;44.00;;;;;;5019515;28;20231;-69
2023/04/20 04:26:10;;;;;;;1.40;1.30;;;19.30;44.10;;;;;;5014271;28;20576;-66
2023/04/20 04:28:36;;;;;;;1.40;1.30;;;19.30;44.10;;;;;;5016899;28;20680;-68
2023/04/20 04:31:04;;;;;;;1.40;1.30;;;19.30;44.10;;;;;;5013062;28;20446;-66
2023/04/20 04:33:33;;;;;;;1.20;1.10;;;19.30;44.10;;;;;;5019930;28;20215;-67
2023/04/20 04:35:59;;;;;;;1.40;1.30;;;19.30;44.10;;;;;;5008771;28;20489;-67
2023/04/20 04:38:25;;;;;;;1.33;1.23;;;19.30;44.10;;;;;;5010174;28;20517;-65
2023/04/20 04:40:51;;;;;;;1.40;1.30;;;19.30;44.10;;;;;;5017098;28;20265;-63
2023/04/20 04:43:18;;;;;;;1.53;1.43;;;19.30;44.10;;;;;;5016020;28;20493;-64
2023/04/20 04:45:44;;;;;;;1.23;1.13;;;19.30;44.10;;;;;;5009379;28;20266;-69
2023/04/20 04:48:10;;;;;;;1.30;1.20;;;19.30;44.10;;;;;;5012556;28;20514;-67
2023/04/20 04:50:39;;;;;;;1.40;1.30;;;19.30;44.10;;;;;;5012673;28;20967;-64
2023/04/20 04:53:05;;;;;;;1.60;1.50;;;19.30;44.10;;;;;;5010914;28;20468;-67
2023/04/20 04:55:30;;;;;;;1.30;1.20;;;19.30;44.10;;;;;;5016800;28;21031;-66
2023/04/20 04:57:56;;;;;;;1.40;1.30;;;19.30;44.10;;;;;;5016233;28;20318;-66
2023/04/20 05:00:22;;;;;;;1.40;1.30;;;19.30;44.10;;;;;;5005078;28;20363;-67
2023/04/20 05:02:48;;;;;;;1.33;1.23;;;19.30;44.80;;;;;;5009074;28;20264;-69
2023/04/20 05:05:13;;;;;;;1.30;1.20;;;19.30;44.10;;;;;;5008004;28;20438;-68
2023/04/20 05:07:39;;;;;;;1.50;1.40;;;19.30;44.10;;;;;;5013525;28;20230;-66
2023/04/20 05:10:06;;;;;;;1.73;1.20;;;19.30;44.10;;;;;;5018131;28;21009;-66
2023/04/20 05:12:32;;;;;;;1.40;1.30;;;19.30;44.10;;;;;;5016264;28;20223;-67
2023/04/20 05:14:57;;;;;;;1.30;1.20;;;19.30;44.10;;;;;;5014640;28;20947;-67
2023/04/20 05:17:23;;;;;;;1.50;1.40;;;19.30;44.10;;;;;;5012501;28;20274;-65
2023/04/20 05:19:49;;;;;;;1.47;1.37;;;19.30;44.10;;;;;;5018492;28;20686;-68
2023/04/20 05:22:14;;;;;;;1.60;1.50;;;19.30;44.10;;;;;;5019833;28;20712;-66
2023/04/20 05:24:41;;;;;;;1.50;1.40;;;19.30;44.10;;;;;;5018138;28;20634;-65
2023/04/20 05:27:07;;;;;;;1.40;1.30;;;19.30;44.00;;;;;;5012203;28;20233;-63
2023/04/20 05:29:32;;;;;;;1.30;1.20;;;19.30;44.00;;;;;;5021451;28;20438;-63
2023/04/20 05:31:58;;;;;;;1.40;1.30;;;19.30;44.80;;;;;;5019087;28;20426;-63
2023/04/20 05:34:23;;;;;;;1.40;1.30;;;19.30;44.10;;;;;;5020776;28;20690;-66
2023/04/20 05:36:51;;;;;;;1.40;1.30;;;19.30;44.10;;;;;;5021049;28;20234;-66
2023/04/20 05:39:17;;;;;;;1.30;1.20;;;19.30;44.10;;;;;;5022892;28;20218;-65
2023/04/20 05:41:42;;;;;;;1.40;1.20;;;19.30;44.10;;;;;;5019703;28;20951;-64
2023/04/20 05:44:08;;;;;;;1.57;1.47;;;19.30;44.10;;;;;;5024857;28;20651;-64
2023/04/20 05:46:33;;;;;;;1.47;1.37;;;19.30;44.10;;;;;;5023458;28;20215;-63
2023/04/20 05:48:59;;;;;;;1.43;1.33;;;19.30;44.10;;;;;;5021965;28;20673;-64
2023/04/20 05:51:27;;;;;;;1.50;1.40;;;19.30;44.10;;;;;;5023992;28;20703;-67
2023/04/20 05:53:53;;;;;;;1.27;1.17;;;19.30;44.10;;;;;;5021917;28;20701;-63
2023/04/20 05:56:19;;;;;;;1.40;1.30;;;19.30;44.10;;;;;;5026597;28;20457;-63
2023/04/20 05:58:44;;;;;;;1.30;1.20;;;19.30;44.10;;;;;;5021197;28;20229;-65
2023/04/20 06:01:10;;;;;;;1.37;1.27;;;19.30;44.10;;;;;;5023263;28;20226;-66
2023/04/20 06:03:36;;;;;;;1.50;1.40;;;19.30;44.10;;;;;;5022432;28;20297;-63
2023/04/20 06:06:01;;;;;;;1.33;1.23;;;19.30;44.10;;;;;;5022618;28;20258;-64
2023/04/20 06:08:27;;;;;;;1.43;1.33;;;19.30;44.10;;;;;;5023524;28;20219;-64
2023/04/20 06:10:54;;;;;;;1.37;1.27;;;19.30;44.10;;;;;;5017589;28;20226;-63
2023/04/20 06:13:20;;;;;;;1.40;1.30;;;19.30;44.00;;;;;;5022959;28;20577;-63
2023/04/20 06:15:46;;;;;;;1.47;1.37;;;19.20;44.00;;;;;;5019897;28;21195;-66
2023/04/20 06:18:11;;;;;;;1.60;1.50;;;19.20;44.00;;;;;;5021810;28;20230;-65
2023/04/20 06:20:38;;;;;;;1.80;1.70;;;19.30;44.10;;;;;;5022007;28;20778;-66
2023/04/20 06:23:03;;;;;;;1.50;1.40;;;19.30;44.10;;;;;;5021980;28;20670;-68
2023/04/20 06:25:29;;;;;;;1.53;1.43;;;19.30;44.10;;;;;;5027239;28;20459;-63
2023/04/20 06:27:55;;;;;;;1.43;1.33;;;19.30;44.10;;;;;;5023186;28;20243;-65
2023/04/20 06:30:21;;;;;;;1.67;1.57;;;19.30;44.10;;;;;;5024730;28;20230;-67
2023/04/20 06:32:47;;;;;;;1.50;1.40;;;19.30;44.10;;;;;;5025004;28;20655;-66
2023/04/20 06:35:12;;;;;;;1.60;1.50;;;19.30;44.10;;;;;;5023454;28;20468;-66
2023/04/20 06:37:39;;;;;;;7.23;1.37;;;19.30;44.10;;;;;;5025035;28;20256;-66
2023/04/20 06:40:06;;;;;;;1.47;1.37;;;19.30;44.10;;;;;;5025949;28;20697;-65
2023/04/20 06:42:32;;;;;;;1.63;1.53;;;19.30;44.00;;;;;;5022662;28;20517;-64
2023/04/20 06:44:58;;;;;;;1.50;1.40;;;19.30;44.10;;;;;;5025497;28;20573;-64
2023/04/20 06:47:30;;;;;;;1.30;1.20;;;19.30;44.10;;;;;;5025796;28;20254;-64
2023/04/20 06:49:56;;;;;;;1.70;1.60;;;19.30;44.20;;;;;;5028321;28;20218;-65
2023/04/20 06:52:22;;;;;;;1.30;1.20;;;19.20;44.00;;;;;;5027921;28;20434;-66
2023/04/20 06:54:48;;;;;;;1.70;1.60;;;19.30;44.10;;;;;;5024689;28;20578;-71
2023/04/20 06:57:13;;;;;;;1.50;1.40;;;19.30;44.80;;;;;;5028406;28;20497;-65
2023/04/20 06:59:39;;;;;;;1.13;1.03;;;19.30;44.00;;;;;;5028436;28;20210;-70
2023/04/20 07:02:05;;;;;;;1.50;1.40;;;19.30;44.10;;;;;;5029863;28;20210;-64
2023/04/20 07:04:30;;;;;;;1.60;1.40;;;19.20;44.00;;;;;;5027768;28;20373;-64
2023/04/20 07:06:56;;;;;;;1.43;1.33;;;19.20;44.00;;;;;;5028008;28;20655;-67
2023/04/20 07:09:22;;;;;;;1.37;1.27;;;19.30;44.10;;;;;;5030765;28;20222;-65
2023/04/20 07:11:47;;;;;;;2.27;1.60;;;19.20;44.00;;;;;;5045322;28;20738;-65
2023/04/20 07:14:13;;;;;;;1.40;1.30;;;19.30;44.10;;;;;;5031415;28;20282;-65
2023/04/20 07:16:38;;;;;;;1.40;1.30;;;19.30;44.10;;;;;;5029958;28;20257;-65
2023/04/20 07:19:04;;;;;;;1.80;1.70;;;19.30;44.10;;;;;;5025696;28;20222;-64
2023/04/20 07:21:30;;;;;;;1.43;1.33;;;19.30;44.10;;;;;;5026753;28;20718;-67
2023/04/20 07:23:57;;;;;;;1.40;1.30;;;19.30;44.10;;;;;;5026200;28;20549;-66
2023/04/20 07:26:23;;;;;;;1.60;1.50;;;19.30;44.10;;;;;;5028757;28;20438;-65
2023/04/20 07:28:50;;;;;;;1.23;1.13;;;19.30;44.10;;;;;;5026638;28;20802;-66
2023/04/20 07:31:15;;;;;;;1.60;1.50;;;19.30;44.10;;;;;;5028441;28;20290;-69
2023/04/20 07:33:42;;;;;;;1.60;1.50;;;19.30;44.10;;;;;;5022787;28;20938;-67
2023/04/20 07:36:08;;;;;;;1.50;1.40;;;19.30;44.10;;;;;;5023682;28;20238;-66
2023/04/20 07:38:33;;;;;;;1.53;1.43;;;19.30;44.10;;;;;;5023047;28;21233;-64
2023/04/20 07:40:59;;;;;;;1.77;1.67;;;19.30;44.10;;;;;;5021404;28;20882;-65
2023/04/20 07:43:24;;;;;;;1.50;1.40;;;19.30;44.10;;;;;;5024324;28;20577;-66
2023/04/20 07:45:50;;;;;;;1.47;1.37;;;19.30;44.30;;;;;;5024402;28;20219;-66
2023/04/20 07:48:15;;;;;;;1.67;1.57;;;19.30;44.20;;;;;;5026380;28;20231;-65
2023/04/20 07:50:41;;;;;;;1.57;1.47;;;19.30;44.10;;;;;;5024769;28;20235;-67
2023/04/20 07:53:07;;;;;;;1.47;1.30;;;19.30;44.90;;;;;;5022801;28;20226;-66
2023/04/20 07:55:32;;;;;;;1.67;1.57;;;19.30;44.10;;;;;;5026919;28;20685;-65
2023/04/20 07:57:59;;;;;;;1.27;1.17;;;19.30;44.10;;;;;;5019819;28;20224;-65
2023/04/20 08:00:25;;;;;;;1.60;1.50;;;19.20;44.00;;;;;;5022616;28;20293;-67
2023/04/20 08:02:51;;;;;;;1.77;1.67;;;19.20;43.90;;;;;;5020723;28;20439;-66
2023/04/20 08:05:17;;;;;;;1.57;1.47;;;19.30;44.10;;;;;;5019748;28;20439;-67
2023/04/20 08:07:42;;;;;;;1.70;1.60;;;19.30;44.10;;;;;;5020152;28;20215;-66
2023/04/20 08:10:08;;;;;;;1.60;1.50;;;19.30;44.00;;;;;;5023150;28;20257;-65
2023/04/20 08:12:34;;;;;;;1.40;1.30;;;19.30;44.10;;;;;;5019633;28;20567;-66
2023/04/20 08:15:03;;;;;;;1.60;1.50;;;19.30;44.10;;;;;;5022842;28;20698;-65
2023/04/20 08:17:28;;;;;;;1.50;1.40;;;19.30;44.10;;;;;;5025097;28;20222;-65
2023/04/20 08:19:54;;;;;;;3.10;1.50;;;19.30;44.10;;;;;;5021419;28;20532;-68
2023/04/20 08:22:19;;;;;;;1.70;1.60;;;19.30;44.10;;;;;;5022507;28;20322;-65
2023/04/20 08:24:46;;;;;;;1.37;1.27;;;19.30;44.10;;;;;;5018574;28;20227;-67
2023/04/20 08:27:12;;;;;;;1.70;1.60;;;19.20;44.00;;;;;;5026390;28;20674;-67
2023/04/20 08:29:38;;;;;;;1.50;1.40;;;19.20;44.00;;;;;;5021447;28;20974;-66
2023/04/20 08:32:07;;;;;;;1.70;1.60;;;19.20;44.00;;;;;;5023576;28;20873;-65
2023/04/20 08:34:33;;;;;;;1.40;1.30;;;19.30;44.10;;;;;;5022348;28;20435;-65
2023/04/20 08:36:59;;;;;;;1.60;1.50;;;19.20;44.00;;;;;;5024230;28;20442;-67
2023/04/20 08:39:24;;;;;;;1.43;1.33;;;19.20;44.00;;;;;;5020184;28;20306;-66
2023/04/20 08:41:52;;;;;;;1.70;1.60;;;19.30;44.10;;;;;;5024630;28;20226;-69
2023/04/20 08:44:18;;;;;;;1.73;1.63;;;19.20;44.00;;;;;;5024516;28;20587;-67
2023/04/20 08:46:46;;;;;;;1.70;1.60;;;19.30;44.10;;;;;;5026532;28;20426;-70
2023/04/20 08:49:14;;;;;;;1.70;1.60;;;19.20;44.00;;;;;;5021266;28;20688;-68
2023/04/20 08:51:41;;;;;;;1.50;1.40;;;19.30;44.10;;;;;;5023234;28;20513;-66
2023/04/20 08:54:06;;;;;;;1.70;1.60;;;19.20;44.00;;;;;;5024387;28;23876;-67
2023/04/20 08:56:37;;;;;;;1.70;1.60;;;19.30;44.10;;;;;;5018866;28;20450;-66
2023/04/20 08:59:04;;;;;;;1.93;1.83;;;19.30;44.10;;;;;;5021749;28;20660;-65
2023/04/20 09:01:31;;;;;;;1.40;1.30;;;19.30;44.10;;;;;;5021508;28;20438;-66
2023/04/20 09:03:58;;;;;;;1.73;1.63;;;19.30;44.10;;;;;;5024184;28;20488;-66
2023/04/20 09:06:24;;;;;;;1.60;1.50;;;19.30;44.10;;;;;;5023709;28;20483;-68
2023/04/20 09:08:50;;;;;;;1.70;1.60;;;19.20;44.00;;;;;;5018408;28;20949;-67
2023/04/20 09:11:26;;;;;;;1.80;1.70;;;19.20;44.00;;;;;;5025352;28;20301;-67
2023/04/20 09:14:11;;;;;;;1.60;1.50;;;19.30;44.40;;;;;;5024033;28;20325;-67
2023/04/20 09:16:38;;;;;;;1.50;1.40;;;19.20;44.00;;;;;;5026160;28;22086;-68
2023/04/20 09:19:04;;;;;;;1.50;1.40;;;19.20;44.00;;;;;;5022924;28;22840;-69
2023/04/20 09:21:30;;;;;;;1.70;1.60;;;19.20;44.00;;;;;;5020590;28;20423;-70
2023/04/20 09:24:05;;;;;;;1.50;1.40;;;19.30;44.10;;;;;;5023002;28;20219;-67
2023/04/20 09:26:33;;;;;;;1.70;1.60;;;19.20;44.00;;;;;;5018810;28;20479;-65
2023/04/20 09:28:59;;;;;;;1.50;1.40;;;19.20;44.00;;;;;;5019048;28;20893;-66
2023/04/20 09:31:25;;;;;;;1.60;1.50;;;19.20;44.00;;;;;;5021045;28;20471;-69
2023/04/20 09:33:58;;;;;;;2.00;1.90;;;19.30;44.10;;;;;;5023209;28;20427;-66
2023/04/20 09:36:37;;;;;;;1.70;1.60;;;19.20;44.00;;;;;;5017016;28;20618;-66
2023/04/20 09:39:08;;;;;;;1.90;1.80;;;19.20;44.00;;;;;;5020134;28;21186;-68
2023/04/20 09:41:34;;;;;;;1.60;1.50;;;19.20;44.00;;;;;;5016701;28;20438;-71
2023/04/20 09:44:00;;;;;;;1.50;1.40;;;19.20;44.00;;;;;;5016882;28;20453;-65
2023/04/20 09:46:30;;;;;;;1.80;1.60;;;19.20;44.00;;;;;;5018385;28;20462;-66
2023/04/20 09:48:57;;;;;;;1.70;1.60;;;19.20;44.00;;;;;;5018589;28;20438;-69
2023/04/20 09:51:26;;;;;;;1.40;1.30;;;19.20;44.00;;;;;;5015916;28;20475;-67
2023/04/20 09:53:56;;;;;;;1.63;1.53;;;19.20;44.00;;;;;;5021940;28;21377;-65
2023/04/20 09:56:22;;;;;;;1.90;1.80;;;19.20;44.00;;;;;;5016226;28;20551;-66
2023/04/20 09:58:49;;;;;;;1.70;1.60;;;19.20;44.00;;;;;;5019353;28;20531;-70
2023/04/20 10:01:15;;;;;;;1.73;1.63;;;19.20;44.00;;;;;;5016679;28;20226;-67
2023/04/20 10:03:41;;;;;;;1.47;1.37;;;19.20;44.00;;;;;;5021439;28;20468;-66
2023/04/20 10:06:28;;;;;;;1.73;1.63;;;19.20;44.00;;;;;;5018892;28;20234;-67
2023/04/20 10:08:54;;;;;;;1.50;1.40;;;19.20;44.00;;;;;;5018626;28;20488;-66
2023/04/20 10:11:28;;;;;;;1.47;1.37;;;19.20;44.00;;;;;;5019248;28;20873;-65
2023/04/20 10:13:55;;;;;;;1.50;1.40;;;19.20;44.00;;;;;;5022770;28;21041;-66
2023/04/20 10:16:20;;;;;;;1.80;1.70;;;19.20;44.00;;;;;;5023229;28;20461;-67
2023/04/20 10:18:56;;;;;;;1.60;1.50;;;19.20;44.00;;;;;;5023561;28;20452;-68
2023/04/20 10:21:22;;;;;;;1.77;1.67;;;19.20;44.00;;;;;;5019225;28;20214;-69
2023/04/20 10:23:52;;;;;;;1.77;1.67;;;19.20;44.00;;;;;;5022630;28;20429;-67
2023/04/20 10:26:18;;;;;;;1.43;1.33;;;19.20;44.00;;;;;;5020000;28;20256;-67
2023/04/20 10:28:43;;;;;;;1.90;1.80;;;19.20;43.90;;;;;;5023638;28;20456;-67
2023/04/20 10:31:15;;;;;;;1.70;1.60;;;19.20;44.00;;;;;;5016469;28;20682;-66
2023/04/20 10:33:54;;;;;;;2.23;1.67;;;19.20;44.00;;;;;;5017640;28;20230;-68
2023/04/20 10:36:23;;;;;;;1.60;1.50;;;19.20;44.00;;;;;;5019865;28;20958;-69
2023/04/20 10:38:51;;;;;;;1.50;1.40;;;19.20;44.00;;;;;;5020979;28;20457;-66
2023/04/20 10:41:16;;;;;;;1.50;1.40;;;19.20;44.00;;;;;;5020803;28;20419;-71
2023/04/20 10:43:42;;;;;;;1.57;1.47;;;19.20;44.00;;;;;;5037626;28;20464;-66
2023/04/20 10:46:23;;;;;;;1.37;1.27;;;19.20;44.00;;;;;;5023356;28;20218;-67
2023/04/20 10:48:56;;;;;;;1.70;1.60;;;19.20;44.00;;;;;;5021034;28;20269;-67
2023/04/20 10:51:23;;;;;;;1.60;1.50;;;19.20;44.00;;;;;;5020508;28;20434;-66
2023/04/20 10:54:06;;;;;;;1.47;1.37;;;19.20;44.00;;;;;;5014058;28;20440;-68
2023/04/20 10:56:48;;;;;;;1.40;1.30;;;19.20;44.00;;;;;;5022879;28;20444;-67
2023/04/20 10:59:19;;;;;;;1.70;1.60;;;19.30;44.10;;;;;;5017293;28;20863;-66
2023/04/20 11:01:45;;;;;;;1.60;1.50;;;19.20;44.00;;;;;;5021495;28;20418;-68
2023/04/20 11:04:12;;;;;;;1.60;1.50;;;19.20;44.00;;;;;;5016569;28;22142;-70
2023/04/20 11:06:39;;;;;;;1.67;1.57;;;19.20;44.00;;;;;;5020061;28;20385;-65
2023/04/20 11:09:17;;;;;;;1.67;1.57;;;19.30;44.10;;;;;;5023912;28;20482;-67
2023/04/20 11:11:43;;;;;;;1.63;1.53;;;19.20;44.00;;;;;;5025858;28;20517;-65
2023/04/20 11:14:10;;;;;;;1.70;1.60;;;19.20;44.00;;;;;;5019629;28;20518;-70
2023/04/20 11:16:37;;;;;;;1.50;1.40;;;19.30;44.10;;;;;;5020496;28;20725;-66
2023/04/20 11:19:04;;;;;;;1.60;1.50;;;19.30;44.10;;;;;;5020491;28;20435;-66
2023/04/20 11:21:39;;;;;;;1.50;1.40;;;19.20;44.00;;;;;;5020202;28;20771;-67
2023/04/20 11:24:19;;;;;;;1.53;1.43;;;19.20;44.00;;;;;;5022232;28;20426;-66
2023/04/20 11:26:48;;;;;;;1.63;1.53;;;19.20;44.00;;;;;;5021276;28;20454;-66
2023/04/20 11:29:45;;;;;;;1.57;1.47;;;19.20;44.00;;;;;;5021093;28;20537;-65
2023/04/20 11:32:11;;;;;;;1.70;1.60;;;19.30;44.10;;;;;;5020368;28;20939;-66
2023/04/20 11:34:38;;;;;;;1.50;1.40;;;19.30;44.10;;;;;;5023342;28;20436;-66
2023/04/20 11:37:12;;;;;;;1.70;1.60;;;19.20;44.00;;;;;;5024784;28;20305;-67
2023/04/20 11:39:38;;;;;;;1.40;1.30;;;19.30;44.10;;;;;;5019641;28;20760;-71
2023/04/20 11:42:04;;;;;;;1.50;1.40;;;19.30;44.10;;;;;;5021053;28;20441;-67
2023/04/20 11:44:30;;;;;;;1.50;1.40;;;19.30;44.10;;;;;;5024950;28;20293;-69
2023/04/20 11:46:56;;;;;;;1.50;1.40;;;19.30;44.10;;;;;;5020443;28;20431;-67
2023/04/20 11:49:23;;;;;;;1.40;1.30;;;19.30;44.10;;;;;;5020156;28;20241;-67
2023/04/20 11:51:49;;;;;;;1.50;1.40;;;19.20;44.00;;;;;;5023479;28;20462;-67
2023/04/20 11:54:14;;;;;;;1.20;1.10;;;19.30;44.10;;;;;;5023398;28;20464;-66
2023/04/20 11:56:41;;;;;;;1.33;1.23;;;19.30;44.10;;;;;;5023509;28;20226;-66
2023/04/20 11:59:10;;;;;;;1.30;1.20;;;19.30;44.10;;;;;;5026778;28;20238;-67
2023/04/20 12:01:36;;;;;;;1.30;1.20;;;19.30;44.10;;;;;;5019029;28;20522;-66
2023/04/20 12:04:02;;;;;;;1.27;1.17;;;19.30;44.10;;;;;;5023474;28;20422;-66
2023/04/20 12:06:28;;;;;;;1.70;1.60;;;19.30;44.10;;;;;;5022592;28;20817;-65
2023/04/20 12:08:55;;;;;;;1.30;1.20;;;19.30;44.10;;;;;;5024352;28;20433;-65
2023/04/20 12:11:20;;;;;;;1.20;1.10;;;19.30;44.10;;;;;;5020935;28;20569;-68
2023/04/20 12:13:46;;;;;;;1.40;1.30;;;19.30;44.10;;;;;;5023264;28;20891;-70
2023/04/20 12:16:12;;;;;;;1.37;1.27;;;19.30;44.10;;;;;;5023372;28;20237;-66
2023/04/20 12:18:37;;;;;;;1.30;1.20;;;19.30;44.10;;;;;;5023118;28;20328;-68
2023/04/20 12:21:03;;;;;;;1.20;1.10;;;19.30;44.10;;;;;;5019146;28;20227;-66
2023/04/20 12:23:29;;;;;;;1.33;1.23;;;19.30;44.10;;;;;;5022210;28;20211;-65
2023/04/20 12:25:55;;;;;;;1.60;1.50;;;19.30;44.10;;;;;;5025977;28;20426;-65
2023/04/20 12:28:20;;;;;;;1.40;1.30;;;19.30;44.00;;;;;;5023191;28;20455;-67
2023/04/20 12:30:46;;;;;;;1.07;1.00;;;19.30;44.10;;;;;;5028676;28;20639;-69
2023/04/20 12:33:11;;;;;;;1.40;1.30;;;19.30;44.10;;;;;;5021681;28;20226;-68
2023/04/20 12:35:37;;;;;;;1.40;1.30;;;19.30;44.10;;;;;;5025793;28;20353;-66
2023/04/20 12:38:02;;;;;;;1.50;1.40;;;19.30;44.10;;;;;;5022623;28;20238;-71
2023/04/20 12:40:28;;;;;;;1.20;1.10;;;19.30;44.10;;;;;;5023501;28;20223;-65
2023/04/20 12:42:54;;;;;;;1.30;1.20;;;19.30;44.10;;;;;;5027235;28;20231;-66
2023/04/20 12:45:19;;;;;;;1.33;1.23;;;19.30;44.10;;;;;;5020375;28;20309;-68